createdAt,value
2022-11-28T00:00:42.695Z,89.94
2022-11-28T00:03:45.465Z,89.71
2022-11-28T00:06:51.336Z,89.81
2022-11-28T00:09:54.134Z,89.79
2022-11-28T00:12:56.477Z,89.93
2022-11-28T00:16:01.190Z,90.19
2022-11-28T00:19:06.011Z,90.40
2022-11-28T00:22:08.656Z,90.10
2022-11-28T00:25:11.194Z,89.72
2022-11-28T00:28:13.753Z,89.71
2022-11-28T00:31:19.127Z,89.67
2022-11-28T00:34:21.741Z,89.75
2022-11-28T00:37:24.073Z,89.36
2022-11-28T00:40:26.713Z,89.08
2022-11-28T00:43:29.103Z,88.73
2022-11-28T00:46:31.710Z,88.65
2022-11-28T00:49:34.143Z,88.58
2022-11-28T00:52:36.681Z,88.71
2022-11-28T00:55:39.748Z,88.70
2022-11-28T00:58:42.816Z,88.50
2022-11-28T01:01:45.131Z,88.32
2022-11-28T01:04:47.629Z,88.36
2022-11-28T01:07:49.974Z,88.41
2022-11-28T01:10:52.533Z,88.28
2022-11-28T01:13:56.553Z,88.22
2022-11-28T01:16:59.104Z,88.46
2022-11-28T01:20:01.589Z,88.41
2022-11-28T01:23:04.385Z,88.07
2022-11-28T01:26:09.268Z,87.90
2022-11-28T01:29:12.290Z,87.32
2022-11-28T01:32:14.968Z,87.32
2022-11-28T01:35:17.642Z,87.27
2022-11-28T01:38:19.967Z,87.47
2022-11-28T01:41:26.184Z,87.23
2022-11-28T01:44:28.425Z,87.51
2022-11-28T01:47:32.114Z,87.59
2022-11-28T01:50:36.109Z,87.45
2022-11-28T01:53:44.193Z,86.91
2022-11-28T01:56:55.989Z,86.28
2022-11-28T02:00:10.964Z,86.98
2022-11-28T02:03:21.054Z,86.94
2022-11-28T02:06:25.426Z,86.80
2022-11-28T02:09:27.645Z,86.59
2022-11-28T02:12:51.531Z,86.84
2022-11-28T02:15:59.585Z,85.95
2022-11-28T02:19:08.181Z,85.79
2022-11-28T02:22:21.151Z,85.62
2022-11-28T02:25:33.721Z,85.53
2022-11-28T02:28:54.313Z,85.66
2022-11-28T02:32:13.889Z,86.00
2022-11-28T02:35:22.119Z,86.26
2022-11-28T02:38:36.776Z,85.98
2022-11-28T02:41:45.297Z,85.76
2022-11-28T02:44:55.719Z,85.84
2022-11-28T02:48:03.750Z,85.61
2022-11-28T02:51:16.651Z,85.57
2022-11-28T02:54:21.783Z,86.00
2022-11-28T02:57:39.166Z,85.58
2022-11-28T03:00:44.086Z,85.73
2022-11-28T03:04:03.469Z,85.30
2022-11-28T03:07:29.017Z,85.37
2022-11-28T03:10:51.890Z,84.80
2022-11-28T03:14:15.773Z,84.83
2022-11-28T03:17:20.987Z,84.24
2022-11-28T03:20:31.990Z,84.28
2022-11-28T03:24:02.837Z,83.29
2022-11-28T03:27:07.736Z,83.75
2022-11-28T03:30:39.053Z,84.06
2022-11-28T03:33:48.320Z,84.46
2022-11-28T03:36:56.777Z,84.54
2022-11-28T03:40:03.021Z,84.67
2022-11-28T03:43:10.953Z,83.92
2022-11-28T03:46:18.564Z,83.62
2022-11-28T03:49:29.879Z,83.77
2022-11-28T03:52:38.152Z,83.45
2022-11-28T03:55:48.874Z,83.48
2022-11-28T03:59:07.961Z,83.74
2022-11-28T04:02:32.175Z,84.06
2022-11-28T04:05:34.724Z,85.10
2022-11-28T04:08:41.308Z,85.97
2022-11-28T04:12:04.735Z,86.45
2022-11-28T04:15:14.775Z,86.09
2022-11-28T04:18:34.736Z,86.18
2022-11-28T04:21:51.688Z,86.44
2022-11-28T04:25:00.026Z,86.19
2022-11-28T04:28:11.298Z,86.25
2022-11-28T04:31:17.023Z,85.57
2022-11-28T04:34:21.202Z,85.49
2022-11-28T04:37:27.534Z,85.74
2022-11-28T04:40:33.282Z,85.85
2022-11-28T04:43:41.910Z,85.64
2022-11-28T04:46:48.637Z,85.09
2022-11-28T04:49:52.164Z,84.97
2022-11-28T04:52:57.433Z,85.06
2022-11-28T04:56:05.406Z,85.05
2022-11-28T04:59:08.881Z,84.94
2022-11-28T05:02:13.501Z,84.91
2022-11-28T05:05:18.794Z,84.69
2022-11-28T05:08:21.508Z,85.16
2022-11-28T05:11:24.850Z,85.92
2022-11-28T05:14:27.782Z,85.61
2022-11-28T05:17:30.413Z,85.73
2022-11-28T05:20:33.094Z,86.13
2022-11-28T05:23:40.506Z,86.40
2022-11-28T05:26:43.407Z,86.51
2022-11-28T05:29:51.932Z,86.94
2022-11-28T05:32:54.751Z,87.27
2022-11-28T05:35:57.692Z,87.43
2022-11-28T05:39:00.622Z,87.71
2022-11-28T05:42:02.932Z,87.72
2022-11-28T05:45:05.931Z,87.69
2022-11-28T05:48:08.541Z,87.48
2022-11-28T05:51:11.382Z,87.27
2022-11-28T05:54:14.011Z,86.96
2022-11-28T05:57:16.544Z,87.00
2022-11-28T06:00:19.636Z,86.90
2022-11-28T06:03:22.191Z,86.81
2022-11-28T06:06:25.386Z,86.71
2022-11-28T06:09:27.934Z,86.63
2022-11-28T06:12:30.465Z,86.54
2022-11-28T06:15:37.466Z,86.39
2022-11-28T06:18:41.486Z,86.59
2022-11-28T06:21:44.108Z,86.52
2022-11-28T06:24:46.402Z,86.40
2022-11-28T06:27:50.003Z,86.23
2022-11-28T06:30:52.272Z,86.07
2022-11-28T06:33:54.884Z,86.00
2022-11-28T06:36:57.145Z,86.26
2022-11-28T06:39:59.774Z,86.04
2022-11-28T06:43:02.042Z,86.16
2022-11-28T06:46:05.071Z,86.35
2022-11-28T06:49:07.743Z,86.67
2022-11-28T06:52:10.251Z,86.63
2022-11-28T06:55:12.613Z,86.46
2022-11-28T06:58:15.244Z,86.10
2022-11-28T07:01:19.903Z,85.98
2022-11-28T07:04:22.545Z,85.77
2022-11-28T07:07:24.869Z,85.65
2022-11-28T07:10:28.242Z,85.89
2022-11-28T07:13:30.512Z,85.64
2022-11-28T07:16:34.005Z,85.40
2022-11-28T07:19:36.253Z,84.92
2022-11-28T07:22:38.723Z,84.86
2022-11-28T07:25:40.949Z,84.65
2022-11-28T07:28:45.060Z,84.13
2022-11-28T07:31:47.351Z,84.07
2022-11-28T07:34:50.414Z,84.32
2022-11-28T07:37:52.731Z,84.12
2022-11-28T07:40:55.475Z,83.64
2022-11-28T07:44:00.651Z,83.37
2022-11-28T07:47:03.795Z,83.16
2022-11-28T07:50:06.772Z,82.74
2022-11-28T07:53:09.475Z,82.37
2022-11-28T07:56:15.315Z,81.82
2022-11-28T07:59:17.956Z,81.69
2022-11-28T08:02:20.249Z,81.57
2022-11-28T08:05:22.847Z,81.17
2022-11-28T08:08:25.123Z,80.37
2022-11-28T08:11:30.106Z,80.78
2022-11-28T08:14:32.382Z,80.18
2022-11-28T08:17:35.207Z,79.95
2022-11-28T08:20:37.439Z,79.22
2022-11-28T08:23:40.428Z,78.69
2022-11-28T08:26:42.702Z,78.21
2022-11-28T08:29:49.123Z,77.50
2022-11-28T08:32:54.061Z,76.42
2022-11-28T08:35:56.537Z,76.73
2022-11-28T08:39:23.346Z,76.08
2022-11-28T08:42:25.054Z,74.86
2022-11-28T08:45:27.340Z,74.24
2022-11-28T08:48:30.928Z,73.85
2022-11-28T08:51:33.625Z,72.65
2022-11-28T08:54:36.471Z,73.22
2022-11-28T08:57:38.780Z,72.70
2022-11-28T09:00:45.100Z,73.08
2022-11-28T09:03:47.657Z,73.73
2022-11-28T09:06:51.034Z,74.54
2022-11-28T09:09:53.288Z,74.84
2022-11-28T09:12:55.868Z,74.70
2022-11-28T09:15:58.129Z,74.67
2022-11-28T09:19:01.104Z,74.08
2022-11-28T09:22:03.410Z,73.88
2022-11-28T09:25:06.441Z,73.05
2022-11-28T09:28:08.743Z,70.94
2022-11-28T09:31:15.161Z,71.32
2022-11-28T09:34:17.577Z,71.25
2022-11-28T09:37:20.116Z,71.59
2022-11-28T09:40:33.612Z,71.36
2022-11-28T09:43:41.954Z,71.12
2022-11-28T09:46:46.443Z,71.05
2022-11-28T09:50:10.508Z,71.56
2022-11-28T09:53:41.953Z,71.61
2022-11-28T09:56:50.472Z,72.06
2022-11-28T09:59:52.788Z,72.70
2022-11-28T10:03:07.545Z,72.76
2022-11-28T10:06:31.210Z,73.26
2022-11-28T10:09:52.576Z,73.71
2022-11-28T10:13:10.207Z,72.48
2022-11-28T10:16:20.996Z,72.39
2022-11-28T10:23:12.226Z,72.19
2022-11-28T10:26:38.128Z,72.21
2022-11-28T10:29:40.781Z,71.80
2022-11-28T10:32:48.805Z,71.84
2022-11-28T10:35:55.748Z,72.19
2022-11-28T10:39:09.897Z,72.04
2022-11-28T10:42:18.854Z,72.13
2022-11-28T10:45:31.959Z,71.90
2022-11-28T10:48:40.990Z,71.99
2022-11-28T10:52:02.577Z,72.17
2022-11-28T10:55:36.491Z,72.05
2022-11-28T10:58:59.865Z,72.55
2022-11-28T11:02:25.156Z,72.60
2022-11-28T11:05:33.847Z,72.95
2022-11-28T11:08:38.382Z,72.95
2022-11-28T11:11:54.932Z,72.85
2022-11-28T11:14:57.250Z,72.98
2022-11-28T11:18:26.509Z,73.02
2022-11-28T11:21:28.792Z,73.13
2022-11-28T11:24:31.851Z,73.38
2022-11-28T11:27:36.688Z,73.98
2022-11-28T11:30:42.401Z,74.22
2022-11-28T11:33:45.335Z,74.63
2022-11-28T11:36:48.870Z,74.40
2022-11-28T11:39:52.881Z,74.06
2022-11-28T11:43:00.510Z,73.73
2022-11-28T11:46:10.577Z,73.71
2022-11-28T11:49:29.053Z,74.15
2022-11-28T11:52:31.749Z,73.59
2022-11-28T11:55:44.618Z,73.02
2022-11-28T11:58:52.252Z,72.30
2022-11-28T12:02:21.255Z,71.90
2022-11-28T12:05:28.493Z,71.15
2022-11-28T12:08:45.122Z,70.96
2022-11-28T12:12:11.650Z,70.74
2022-11-28T12:15:39.338Z,71.00
2022-11-28T12:19:04.707Z,71.25
2022-11-28T12:22:15.938Z,70.89
2022-11-28T12:25:37.449Z,70.89
2022-11-28T12:29:06.172Z,71.21
2022-11-28T12:32:23.582Z,70.90
2022-11-28T12:36:03.568Z,71.15
2022-11-28T12:39:17.697Z,71.16
2022-11-28T12:43:02.681Z,71.21
2022-11-28T12:46:28.290Z,71.49
2022-11-28T12:49:54.230Z,71.30
2022-11-28T12:53:34.359Z,71.27
2022-11-28T12:56:42.897Z,71.44
2022-11-28T13:00:02.102Z,71.68
2022-11-28T13:03:25.179Z,71.86
2022-11-28T13:06:44.308Z,72.50
2022-11-28T13:10:11.606Z,72.81
2022-11-28T13:13:22.761Z,72.95
2022-11-28T13:16:40.430Z,73.02
2022-11-28T13:19:55.234Z,73.24
2022-11-28T13:23:07.440Z,73.10
2022-11-28T13:26:36.922Z,73.16
2022-11-28T13:30:19.465Z,73.03
2022-11-28T13:33:25.054Z,72.99
2022-11-28T13:40:24.388Z,72.89
2022-11-28T13:44:02.490Z,72.92
2022-11-28T13:47:23.286Z,73.23
2022-11-28T13:50:28.584Z,73.71
2022-11-28T13:53:31.101Z,74.35
2022-11-28T13:56:33.458Z,73.49
2022-11-28T13:59:37.653Z,73.23
2022-11-28T14:02:47.217Z,73.79
2022-11-28T14:05:57.295Z,74.35
2022-11-28T14:09:11.616Z,74.41
2022-11-28T14:12:20.243Z,75.36
2022-11-28T14:15:36.641Z,75.65
2022-11-28T14:19:00.721Z,75.62
2022-11-28T14:22:08.775Z,75.80
2022-11-28T14:25:33.039Z,75.61
2022-11-28T14:28:38.228Z,75.58
2022-11-28T14:32:06.604Z,75.46
2022-11-28T14:35:52.663Z,76.09
2022-11-28T14:39:17.206Z,76.11
2022-11-28T14:43:00.000Z,76.37
2022-11-28T14:46:20.320Z,76.68
2022-11-28T14:49:23.981Z,77.43
2022-11-28T14:52:44.424Z,77.48
2022-11-28T14:55:47.508Z,77.53
2022-11-28T14:58:52.490Z,77.47
2022-11-28T15:02:06.203Z,77.70
2022-11-28T15:05:18.223Z,77.99
2022-11-28T15:08:20.449Z,78.10
2022-11-28T15:11:47.292Z,78.10
2022-11-28T15:14:57.490Z,78.30
2022-11-28T15:18:02.316Z,78.48
2022-11-28T15:21:11.728Z,78.53
2022-11-28T15:24:44.577Z,78.58
2022-11-28T15:27:47.894Z,78.46
2022-11-28T15:30:53.034Z,78.61
2022-11-28T15:33:55.532Z,78.60
2022-11-28T15:37:04.481Z,78.76
2022-11-28T15:40:07.646Z,78.65
2022-11-28T15:43:14.491Z,78.73
2022-11-28T15:46:37.144Z,79.13
2022-11-28T15:49:43.389Z,79.23
2022-11-28T15:53:17.061Z,79.58
2022-11-28T15:56:19.908Z,79.66
2022-11-28T15:59:22.831Z,79.93
2022-11-28T16:02:31.197Z,79.96
2022-11-28T16:05:33.954Z,80.02
2022-11-28T16:08:47.820Z,80.13
2022-11-28T16:11:53.211Z,80.28
2022-11-28T16:15:01.695Z,80.37
2022-11-28T16:18:04.769Z,80.31
2022-11-28T16:21:13.426Z,79.84
2022-11-28T16:24:26.581Z,79.86
2022-11-28T16:27:41.724Z,79.74
2022-11-28T16:30:48.451Z,80.18
2022-11-28T16:33:52.124Z,80.23
2022-11-28T16:36:56.754Z,80.01
2022-11-28T16:40:17.059Z,79.72
2022-11-28T16:43:32.358Z,79.92
2022-11-28T16:46:39.242Z,79.79
2022-11-28T16:50:03.658Z,80.14
2022-11-28T16:53:06.064Z,80.15
2022-11-28T16:56:25.301Z,80.34
2022-11-28T16:59:27.662Z,80.62
2022-11-28T17:02:30.259Z,80.85
2022-11-28T17:05:32.688Z,81.61
2022-11-28T17:08:35.190Z,81.62
2022-11-28T17:11:42.951Z,82.04
2022-11-28T17:14:45.692Z,82.31
2022-11-28T17:17:48.168Z,82.38
2022-11-28T17:20:50.763Z,82.63
2022-11-28T17:23:53.053Z,82.72
2022-11-28T17:26:55.614Z,82.97
2022-11-28T17:29:58.099Z,83.08
2022-11-28T17:33:01.952Z,83.03
2022-11-28T17:36:05.006Z,83.40
2022-11-28T17:39:07.541Z,83.35
2022-11-28T17:42:11.201Z,83.51
2022-11-28T17:45:15.201Z,83.59
2022-11-28T17:48:18.773Z,83.49
2022-11-28T17:51:21.344Z,83.48
2022-11-28T17:54:26.158Z,83.33
2022-11-28T17:57:28.735Z,83.58
2022-11-28T18:00:32.882Z,83.92
2022-11-28T18:03:35.625Z,84.20
2022-11-28T18:06:39.139Z,84.03
2022-11-28T18:09:41.920Z,84.21
2022-11-28T18:12:44.312Z,84.19
2022-11-28T18:15:47.555Z,84.08
2022-11-28T18:18:49.934Z,84.22
2022-11-28T18:21:53.169Z,84.17
2022-11-28T18:24:55.886Z,84.14
2022-11-28T18:27:58.524Z,84.14
2022-11-28T18:31:01.011Z,83.99
2022-11-28T18:34:05.748Z,84.35
2022-11-28T18:37:08.394Z,84.08
2022-11-28T18:40:11.454Z,83.87
2022-11-28T18:43:13.946Z,84.05
2022-11-28T18:46:19.271Z,84.63
2022-11-28T18:49:21.836Z,85.00
2022-11-28T18:52:24.410Z,85.06
2022-11-28T18:55:26.793Z,85.27
2022-11-28T18:58:29.706Z,85.29
2022-11-28T19:01:34.515Z,85.50
2022-11-28T19:04:39.244Z,85.48
2022-11-28T19:07:41.730Z,85.15
2022-11-28T19:10:44.691Z,85.08
2022-11-28T19:13:48.210Z,85.49
2022-11-28T19:16:53.711Z,85.46
2022-11-28T19:19:56.054Z,85.67
2022-11-28T19:22:58.813Z,85.67
2022-11-28T19:26:10.102Z,85.98
2022-11-28T19:29:14.248Z,85.90
2022-11-28T19:32:18.035Z,86.29
2022-11-28T19:35:20.567Z,86.11
2022-11-28T19:38:23.253Z,86.33
2022-11-28T19:41:27.507Z,86.34
2022-11-28T19:44:30.568Z,86.35
2022-11-28T19:47:33.677Z,86.57
2022-11-28T19:50:36.011Z,86.42
2022-11-28T19:53:41.081Z,86.45
2022-11-28T19:56:43.596Z,86.08
2022-11-28T19:59:46.606Z,85.64
2022-11-28T20:02:50.368Z,85.47
2022-11-28T20:05:53.059Z,85.07
2022-11-28T20:08:57.939Z,85.02
2022-11-28T20:12:00.477Z,85.43
2022-11-28T20:15:05.990Z,85.64
2022-11-28T20:18:08.549Z,85.73
2022-11-28T20:21:12.146Z,86.18
2022-11-28T20:24:15.102Z,86.70
2022-11-28T20:27:17.549Z,86.56
2022-11-28T20:30:20.661Z,86.64
2022-11-28T20:33:23.933Z,86.61
2022-11-28T20:36:28.012Z,86.75
2022-11-28T20:39:30.347Z,86.51
2022-11-28T20:42:39.779Z,86.46
2022-11-28T20:45:42.528Z,86.44
2022-11-28T20:48:46.363Z,86.39
2022-11-28T20:51:50.312Z,86.00
2022-11-28T20:54:52.809Z,85.78
2022-11-28T20:57:55.071Z,85.73
2022-11-28T21:00:57.745Z,85.69
2022-11-28T21:04:04.065Z,85.54
2022-11-28T21:07:06.658Z,85.54
2022-11-28T21:10:09.160Z,85.62
2022-11-28T21:13:12.227Z,85.48
2022-11-28T21:16:18.209Z,85.73
2022-11-28T21:19:21.407Z,85.50
2022-11-28T21:22:24.076Z,85.91
2022-11-28T21:25:26.899Z,85.77
2022-11-28T21:28:29.331Z,85.58
2022-11-28T21:31:34.191Z,85.54
2022-11-28T21:34:36.751Z,85.57
2022-11-28T21:37:39.258Z,85.33
2022-11-28T21:40:42.057Z,85.46
2022-11-28T21:43:45.292Z,85.40
2022-11-28T21:46:47.594Z,85.46
2022-11-28T21:49:50.543Z,85.58
2022-11-28T21:52:53.270Z,85.90
2022-11-28T21:55:56.422Z,85.92
2022-11-28T21:58:58.774Z,85.55
2022-11-28T22:02:01.456Z,85.48
2022-11-28T22:05:05.123Z,85.58
2022-11-28T22:08:07.761Z,85.31
2022-11-28T22:11:13.188Z,85.28
2022-11-28T22:14:15.784Z,85.29
2022-11-28T22:17:18.732Z,85.24
2022-11-28T22:20:21.111Z,85.16
2022-11-28T22:23:23.711Z,85.07
2022-11-28T22:26:26.700Z,85.24
2022-11-28T22:29:29.226Z,85.22
2022-11-28T22:32:31.605Z,85.25
2022-11-28T22:35:34.564Z,85.73
2022-11-28T22:38:38.045Z,85.41
2022-11-28T22:41:40.735Z,85.39
2022-11-28T22:44:43.673Z,85.46
2022-11-28T22:47:46.631Z,85.82
2022-11-28T22:50:49.346Z,86.27
2022-11-28T22:53:56.722Z,86.39
2022-11-28T22:57:00.579Z,86.02
2022-11-28T23:00:05.436Z,86.00
2022-11-28T23:03:07.885Z,86.71
2022-11-28T23:06:18.753Z,86.88
2022-11-28T23:09:21.277Z,87.19
2022-11-28T23:12:24.998Z,87.56
2022-11-28T23:15:27.495Z,87.36
2022-11-28T23:18:30.718Z,87.99
2022-11-28T23:21:36.861Z,87.97
2022-11-28T23:24:39.543Z,87.80
2022-11-28T23:27:41.799Z,87.65
2022-11-28T23:30:44.346Z,87.67
2022-11-28T23:33:47.462Z,87.58
2022-11-28T23:36:50.155Z,87.68
2022-11-28T23:39:52.540Z,88.30
2022-11-28T23:42:55.125Z,88.00
2022-11-28T23:45:57.449Z,87.86
2022-11-28T23:49:00.071Z,88.05
2022-11-28T23:52:02.577Z,88.22
2022-11-28T23:55:05.672Z,88.25
2022-11-28T23:58:08.150Z,88.16
